EST,Max TemperatureF,Mean TemperatureF,Min TemperatureF,Max Dew PointF,MeanDew PointF,Min DewpointF,Max Humidity, Mean Humidity, Min Humidity, Max Sea Level PressureIn, Mean Sea Level PressureIn, Min Sea Level PressureIn, Max VisibilityMiles, Mean VisibilityMiles, Min VisibilityMiles, Max Wind SpeedMPH, Mean Wind SpeedMPH, Max Gust SpeedMPH,PrecipitationIn, CloudCover, Events, WindDirDegrees
2013-1-1,79,74,66,63,59,57,87,64,52,30.19,30.13,30.07,10,10,10,16,8,24,0.00,7,,140
2013-1-2,81,70,60,67,64,59,100,76,56,30.11,30.06,30.01,10,10,9,12,2,,0.00,4,,180
2013-1-3,82,73,64,67,65,61,100,75,47,30.15,30.09,30.05,10,10,10,12,3,18,0.00,4,,166
2013-1-4,82,72,62,70,69,67,97,76,60,30.23,30.17,30.13,10,10,9,9,3,,0.00,4,,33
2013-1-5,80,73,66,70,68,66,100,77,61,30.26,30.21,30.16,10,10,5,13,6,,0.00,4,,30
2013-1-6,82,76,69,71,69,67,100,74,65,30.19,30.12,30.07,10,10,10,18,7,23,0.02,4,,132
2013-1-7,80,70,60,69,66,64,100,78,62,30.17,30.12,30.08,10,8,1,9,3,,0.00,3,,34
2013-1-8,82,76,69,72,70,68,96,81,65,30.21,30.15,30.09,10,10,8,17,8,23,0.03,5,Rain,107
2013-1-9,82,78,73,72,70,68,85,76,65,30.28,30.23,30.17,10,10,10,22,12,28,0.00,5,,108
2013-1-10,81,76,72,68,65,62,79,69,52,30.30,30.26,30.19,10,10,10,21,12,26,0.00,2,,108
2013-1-11,82,77,72,68,66,63,82,71,53,30.26,30.20,30.17,10,10,10,16,10,22,0.00,2,Rain,110
2013-1-12,81,75,69,68,66,64,90,73,56,30.19,30.14,30.10,10,10,10,17,9,21,0.00,3,,103
2013-1-13,81,76,71,67,63,60,81,67,50,30.14,30.11,30.09,10,10,10,17,9,28,0.00,2,,118
2013-1-14,80,73,66,64,62,59,84,68,51,30.18,30.15,30.12,10,10,10,15,7,20,0.00,2,,118
2013-1-15,82,73,64,66,63,61,94,75,53,30.15,30.11,30.06,10,10,10,15,4,21,0.00,2,,112
2013-1-16,81,72,63,67,65,62,97,82,60,30.12,30.07,30.03,10,10,10,14,3,20,0.00,3,,143
2013-1-17,80,70,60,70,64,54,100,85,69,30.12,30.06,30.00,10,8,1,18,5,28,0.01,4,Rain,245
2013-1-18,66,60,55,61,52,46,84,71,58,30.21,30.18,30.13,10,10,10,15,9,,0.00,6,,329
2013-1-19,75,68,60,66,63,59,100,88,71,30.23,30.16,30.11,10,9,2,10,5,,0.02,8,Rain,329
2013-1-20,82,72,62,67,64,62,100,87,51,30.17,30.09,30.03,10,8,0,9,3,,0.01,5,Fog,359
2013-1-21,79,72,66,70,66,64,97,81,64,30.08,30.03,29.98,10,10,5,13,6,,0.07,4,Rain,252
2013-1-22,78,70,63,64,59,54,94,74,48,30.22,30.11,30.02,10,10,10,16,8,22,0.00,2,,335
2013-1-23,75,68,61,56,52,49,81,58,40,30.31,30.25,30.20,10,10,10,16,8,23,0.00,1,,33
2013-1-24,77,67,57,55,53,50,87,65,43,30.31,30.26,30.21,10,10,10,12,7,,0.00,1,,14
2013-1-25,78,68,59,57,53,51,81,62,39,30.30,30.24,30.19,10,10,10,13,6,,0.00,0,,35
2013-1-26,79,68,57,61,57,52,97,71,45,30.27,30.22,30.17,10,10,10,10,3,,0.00,1,,30
2013-1-27,80,71,62,63,61,60,93,73,50,30.29,30.25,30.21,10,10,10,17,6,23,0.00,2,,67
2013-1-28,81,76,71,66,63,60,79,66,50,30.32,30.27,30.24,10,10,10,17,12,23,0.00,3,,105
2013-1-29,82,76,70,68,66,63,87,71,56,30.24,30.19,30.14,10,10,10,18,10,23,0.00,3,,123
2013-1-30,82,76,70,68,65,62,90,72,56,30.12,30.06,29.99,10,10,10,22,11,26,0.00,2,,154
2013-1-31,73,68,62,71,61,43,94,77,50,30.18,30.09,29.98,10,10,10,21,10,25,0.00,5,Rain,324